Time;durP1;ratioP1;P1;durP2;ratioP2;P2;SDS_P1;SDS_P2;PMS_P1;PMS_P2;Temp;Humidity;BMP_temperature;BMP_pressure;BME280_temperature;BME280_humidity;BME280_pressure;Samples;Min_cycle;Max_cycle;Signal;HPM_P1;HPM_P2
2023/10/14 00:00:28;;;;;;;6.57;1.20;;;;;;;;;;5010706;28;20061;-72
2023/10/14 00:02:53;;;;;;;5.78;1.30;;;;;;;;;;5014251;28;20109;-71
2023/10/14 00:05:22;;;;;;;3.50;0.98;;;;;;;;;;5013054;28;20101;-71
2023/10/14 00:07:47;;;;;;;6.13;1.10;;;;;;;;;;5003745;28;20025;-70
2023/10/14 00:10:13;;;;;;;2.78;0.80;;;;;;;;;;5003999;28;20476;-70
2023/10/14 00:12:39;;;;;;;7.75;0.98;;;;;;;;;;5013195;28;20033;-71
2023/10/14 00:15:05;;;;;;;6.55;0.93;;;;;;;;;;5005576;28;20383;-71
2023/10/14 00:17:35;;;;;;;2.53;0.80;;;;;;;;;;5010231;28;20053;-71
2023/10/14 00:20:00;;;;;;;6.18;1.20;;;;;;;;;;5010787;28;20502;-71
2023/10/14 00:22:26;;;;;;;7.65;1.10;;;;;;;;;;5009745;28;20053;-71
2023/10/14 00:24:52;;;;;;;6.32;1.25;;;;;;;;;;5010119;28;20053;-72
2023/10/14 00:27:17;;;;;;;5.18;0.98;;;;;;;;;;5013502;28;20029;-71
2023/10/14 00:29:42;;;;;;;7.68;1.30;;;;;;;;;;5014667;28;20029;-71
2023/10/14 00:32:08;;;;;;;5.35;1.15;;;;;;;;;;5009125;28;20021;-71
2023/10/14 00:34:33;;;;;;;12.63;1.25;;;;;;;;;;5022464;28;20028;-71
2023/10/14 00:36:58;;;;;;;5.72;1.20;;;;;;;;;;5012867;28;20411;-70
2023/10/14 00:39:25;;;;;;;11.68;1.20;;;;;;;;;;5010357;28;20147;-71
2023/10/14 00:41:50;;;;;;;5.63;1.08;;;;;;;;;;5008627;28;20038;-71
2023/10/14 00:44:19;;;;;;;6.40;1.10;;;;;;;;;;5012286;28;20490;-72
2023/10/14 00:46:50;;;;;;;3.83;1.20;;;;;;;;;;5012516;28;20390;-71
2023/10/14 00:49:16;;;;;;;4.20;1.02;;;;;;;;;;5013496;28;20097;-71
2023/10/14 00:51:42;;;;;;;5.90;1.35;;;;;;;;;;5010777;28;20464;-67
2023/10/14 00:54:10;;;;;;;5.13;1.03;;;;;;;;;;5010366;28;20022;-71
2023/10/14 00:56:40;;;;;;;6.50;1.10;;;;;;;;;;5010185;28;20526;-72
2023/10/14 00:59:06;;;;;;;2.92;0.80;;;;;;;;;;5018698;28;20467;-71
2023/10/14 01:04:34;;;;;;;4.37;0.90;;;;;;;;;;5007633;28;20017;-71
2023/10/14 01:07:04;;;;;;;4.90;1.20;;;;;;;;;;5009937;28;20018;-71
2023/10/14 01:09:41;;;;;;;4.67;0.93;;;;;;;;;;5009661;28;20018;-71
2023/10/14 01:12:16;;;;;;;7.80;1.20;;;;;;;;;;5010021;28;20533;-71
2023/10/14 01:14:45;;;;;;;5.33;1.10;;;;;;;;;;5009841;28;20112;-71
2023/10/14 01:17:20;;;;;;;4.03;1.00;;;;;;;;;;5011298;28;20091;-71
2023/10/14 01:19:46;;;;;;;3.47;0.97;;;;;;;;;;5009029;28;20014;-71
2023/10/14 01:22:12;;;;;;;8.33;1.30;;;;;;;;;;5015258;28;20109;-72
2023/10/14 01:24:41;;;;;;;3.47;1.10;;;;;;;;;;5010447;28;20030;-72
2023/10/14 01:27:07;;;;;;;7.17;1.40;;;;;;;;;;5003964;28;20014;-71
2023/10/14 01:29:39;;;;;;;8.87;1.40;;;;;;;;;;5011216;28;20095;-73
2023/10/14 01:32:39;;;;;;;6.47;1.13;;;;;;;;;;5013813;28;20476;-73
2023/10/14 01:37:52;;;;;;;5.40;1.10;;;;;;;;;;5012983;28;20444;-72
2023/10/14 01:40:39;;;;;;;5.30;1.00;;;;;;;;;;5013660;28;20018;-71
2023/10/14 01:43:08;;;;;;;4.23;1.20;;;;;;;;;;5016045;28;20044;-68
2023/10/14 01:45:40;;;;;;;5.27;1.30;;;;;;;;;;5013027;28;20349;-71
2023/10/14 01:50:38;;;;;;;8.33;1.60;;;;;;;;;;5012666;28;20028;-72
2023/10/14 01:53:10;;;;;;;9.77;1.60;;;;;;;;;;5021604;28;20371;-72
2023/10/14 01:55:35;;;;;;;6.57;1.50;;;;;;;;;;5009712;28;20079;-71
2023/10/14 01:58:02;;;;;;;5.20;1.83;;;;;;;;;;5012832;28;20026;-72
2023/10/14 02:00:35;;;;;;;6.57;1.83;;;;;;;;;;5012522;28;20018;-72
2023/10/14 02:03:05;;;;;;;6.20;1.90;;;;;;;;;;5013660;28;20414;-71
2023/10/14 02:05:34;;;;;;;10.17;1.70;;;;;;;;;;5012281;28;20021;-70
2023/10/14 02:07:59;;;;;;;8.03;1.90;;;;;;;;;;5015803;28;20029;-70
2023/10/14 02:10:24;;;;;;;7.60;1.83;;;;;;;;;;5016270;28;20026;-69
2023/10/14 02:12:50;;;;;;;5.97;1.93;;;;;;;;;;5016584;28;20097;-70
2023/10/14 02:15:15;;;;;;;6.40;1.90;;;;;;;;;;5014391;28;20014;-72
2023/10/14 02:17:40;;;;;;;4.83;1.90;;;;;;;;;;5013099;28;20056;-69
2023/10/14 02:20:20;;;;;;;4.33;1.70;;;;;;;;;;5012496;28;20026;-72
2023/10/14 02:22:45;;;;;;;6.20;1.87;;;;;;;;;;5011837;28;20025;-70
2023/10/14 02:25:15;;;;;;;4.73;1.70;;;;;;;;;;5013037;28;20025;-70
2023/10/14 02:27:42;;;;;;;8.47;1.87;;;;;;;;;;5009361;28;20026;-72
2023/10/14 02:30:08;;;;;;;8.30;1.90;;;;;;;;;;5008640;28;20475;-74
2023/10/14 02:32:34;;;;;;;9.10;1.63;;;;;;;;;;5012368;28;20021;-72
2023/10/14 02:34:59;;;;;;;5.73;1.60;;;;;;;;;;5021234;28;20105;-72
2023/10/14 02:37:24;;;;;;;10.13;1.50;;;;;;;;;;5016269;28;20030;-69
2023/10/14 02:39:50;;;;;;;11.33;1.63;;;;;;;;;;5011798;28;20018;-72
2023/10/14 02:42:16;;;;;;;9.37;1.53;;;;;;;;;;5011844;28;20034;-70
2023/10/14 02:45:14;;;;;;;6.40;1.83;;;;;;;;;;5016144;28;20024;-69
2023/10/14 02:47:37;;;;;;;4.22;1.42;;;;;;;;;;5010668;28;20029;-68
2023/10/14 02:50:07;;;;;;;7.30;1.40;;;;;;;;;;5013387;28;20069;-70
2023/10/14 02:52:38;;;;;;;7.90;1.33;;;;;;;;;;5013472;28;20022;-70
2023/10/14 02:55:20;;;;;;;6.43;1.47;;;;;;;;;;5015349;28;20512;-69
2023/10/14 02:57:46;;;;;;;6.20;1.40;;;;;;;;;;5009950;28;20033;-72
2023/10/14 03:00:11;;;;;;;10.03;1.60;;;;;;;;;;5011739;28;20018;-71
2023/10/14 03:02:48;;;;;;;8.33;1.90;;;;;;;;;;5011994;28;20061;-70
2023/10/14 03:05:32;;;;;;;8.53;1.30;;;;;;;;;;5012565;28;20475;-71
2023/10/14 03:08:06;;;;;;;9.53;1.30;;;;;;;;;;5012001;28;20034;-65
2023/10/14 03:10:35;;;;;;;7.60;1.40;;;;;;;;;;5008061;28;20033;-63
2023/10/14 03:13:00;;;;;;;8.10;1.43;;;;;;;;;;5007899;28;20116;-64
2023/10/14 03:15:27;;;;;;;11.20;1.70;;;;;;;;;;5011418;28;20053;-65
2023/10/14 03:17:56;;;;;;;13.27;1.83;;;;;;;;;;5010829;28;20042;-66
2023/10/14 03:22:57;;;;;;;7.73;1.63;;;;;;;;;;5012684;28;20071;-63
2023/10/14 03:25:27;;;;;;;8.87;1.60;;;;;;;;;;5011962;28;20487;-59
2023/10/14 03:28:00;;;;;;;10.77;1.57;;;;;;;;;;5011423;28;20029;-63
2023/10/14 03:30:26;;;;;;;12.80;1.90;;;;;;;;;;5011559;28;20033;-61
2023/10/14 03:32:52;;;;;;;10.30;1.53;;;;;;;;;;5009599;28;20022;-60
2023/10/14 03:35:21;;;;;;;11.23;1.73;;;;;;;;;;5013628;28;20018;-62
2023/10/14 03:37:53;;;;;;;14.20;2.03;;;;;;;;;;5011000;28;20029;-60
2023/10/14 03:43:07;;;;;;;23.10;2.30;;;;;;;;;;5007250;28;20033;-59
2023/10/14 03:45:33;;;;;;;12.47;2.03;;;;;;;;;;5013120;28;20468;-62
2023/10/14 03:48:00;;;;;;;16.87;2.20;;;;;;;;;;5011575;28;20036;-58
2023/10/14 03:50:25;;;;;;;8.23;1.90;;;;;;;;;;5013692;28;20404;-59
2023/10/14 03:52:53;;;;;;;12.30;2.10;;;;;;;;;;5010930;28;20026;-60
2023/10/14 03:55:24;;;;;;;8.73;1.60;;;;;;;;;;5010852;28;20046;-59
2023/10/14 03:57:51;;;;;;;15.13;1.60;;;;;;;;;;5009564;28;20030;-62
2023/10/14 04:00:25;;;;;;;9.80;1.70;;;;;;;;;;5014268;28;20053;-60
2023/10/14 04:02:50;;;;;;;9.47;1.63;;;;;;;;;;5011305;28;20086;-61
2023/10/14 04:05:19;;;;;;;9.53;1.50;;;;;;;;;;5016493;28;20109;-59
2023/10/14 04:07:44;;;;;;;11.47;1.73;;;;;;;;;;5010495;28;20033;-60
2023/10/14 04:10:11;;;;;;;10.50;1.60;;;;;;;;;;5011422;28;20047;-60
2023/10/14 04:12:37;;;;;;;13.13;2.10;;;;;;;;;;5013099;28;20049;-63
2023/10/14 04:17:37;;;;;;;12.13;1.77;;;;;;;;;;5010474;28;20053;-69
2023/10/14 04:27:36;;;;;;;25.10;2.95;;;;;;;;;;5011177;28;20029;-69
2023/10/14 04:30:11;;;;;;;18.23;2.30;;;;;;;;;;5011192;28;20552;-67
2023/10/14 04:33:04;;;;;;;12.67;1.90;;;;;;;;;;5010113;28;20513;-67
2023/10/14 04:35:33;;;;;;;10.93;2.10;;;;;;;;;;5009149;28;20014;-68
2023/10/14 04:38:02;;;;;;;11.13;2.00;;;;;;;;;;5013943;28;20479;-67
2023/10/14 04:43:00;;;;;;;13.93;2.00;;;;;;;;;;5010833;28;20175;-70
2023/10/14 04:45:32;;;;;;;11.33;1.80;;;;;;;;;;5008894;28;20534;-69
2023/10/14 04:47:58;;;;;;;12.32;2.50;;;;;;;;;;5010127;28;20030;-68
2023/10/14 04:50:23;;;;;;;15.60;2.03;;;;;;;;;;5009893;28;20060;-67
2023/10/14 04:52:48;;;;;;;13.50;2.17;;;;;;;;;;5009754;28;20544;-67
2023/10/14 04:58:11;;;;;;;14.67;2.23;;;;;;;;;;5018547;28;20074;-67
2023/10/14 05:00:43;;;;;;;10.87;2.10;;;;;;;;;;5009207;28;20033;-68
2023/10/14 05:03:09;;;;;;;12.52;1.92;;;;;;;;;;5009392;28;20022;-68
2023/10/14 05:05:35;;;;;;;13.07;2.13;;;;;;;;;;5010938;28;20034;-68
2023/10/14 05:08:04;;;;;;;15.30;2.33;;;;;;;;;;5012836;28;20408;-69
2023/10/14 05:10:30;;;;;;;10.10;1.70;;;;;;;;;;5011381;28;20050;-68
2023/10/14 05:12:55;;;;;;;11.80;2.10;;;;;;;;;;5011194;28;20068;-67
2023/10/14 05:15:21;;;;;;;9.90;1.90;;;;;;;;;;5012485;28;20021;-68
2023/10/14 05:17:49;;;;;;;10.73;2.07;;;;;;;;;;5010583;28;20060;-68
2023/10/14 05:20:28;;;;;;;15.13;1.70;;;;;;;;;;5009436;28;20458;-69
2023/10/14 05:22:53;;;;;;;20.77;2.70;;;;;;;;;;5007103;28;20503;-68
2023/10/14 05:25:27;;;;;;;6.83;1.53;;;;;;;;;;5009848;28;20064;-68
2023/10/14 05:27:56;;;;;;;10.33;1.90;;;;;;;;;;5005108;28;20480;-70
2023/10/14 05:30:22;;;;;;;11.00;1.60;;;;;;;;;;5009732;28;20033;-68
2023/10/14 05:32:48;;;;;;;11.80;1.93;;;;;;;;;;5009707;28;20475;-68
2023/10/14 05:35:13;;;;;;;14.47;2.00;;;;;;;;;;5010538;28;20022;-67
2023/10/14 05:37:41;;;;;;;13.07;2.33;;;;;;;;;;5005639;28;20037;-68
2023/10/14 05:40:13;;;;;;;20.10;3.27;;;;;;;;;;5007985;28;20391;-70
2023/10/14 05:42:39;;;;;;;11.30;2.00;;;;;;;;;;5007471;28;20077;-70
2023/10/14 05:45:04;;;;;;;11.87;2.10;;;;;;;;;;5014181;28;20046;-69
2023/10/14 05:47:29;;;;;;;16.53;2.30;;;;;;;;;;5009196;28;20472;-70
2023/10/14 05:49:55;;;;;;;16.73;1.90;;;;;;;;;;5009102;28;20022;-69
2023/10/14 05:52:26;;;;;;;17.67;1.90;;;;;;;;;;5009553;28;20459;-70
2023/10/14 05:54:51;;;;;;;14.45;3.33;;;;;;;;;;5009574;28;20510;-68
2023/10/14 05:57:17;;;;;;;15.97;2.70;;;;;;;;;;5009178;28;20022;-71
2023/10/14 05:59:43;;;;;;;17.93;2.43;;;;;;;;;;5009107;28;20063;-70
2023/10/14 06:02:12;;;;;;;11.90;2.07;;;;;;;;;;5010347;28;20026;-69
2023/10/14 06:04:41;;;;;;;17.63;2.30;;;;;;;;;;5012408;28;20029;-68
2023/10/14 06:07:07;;;;;;;16.63;2.20;;;;;;;;;;5008963;28;20155;-68
2023/10/14 06:09:32;;;;;;;15.37;2.27;;;;;;;;;;5008790;28;20026;-69
2023/10/14 06:11:58;;;;;;;9.77;1.70;;;;;;;;;;5008865;28;20025;-68
2023/10/14 06:14:25;;;;;;;11.67;1.70;;;;;;;;;;5009947;28;20433;-69
2023/10/14 06:16:50;;;;;;;12.43;1.90;;;;;;;;;;5013842;28;20060;-68
2023/10/14 06:19:17;;;;;;;13.90;2.50;;;;;;;;;;5008616;28;20010;-68
2023/10/14 06:21:44;;;;;;;8.83;1.40;;;;;;;;;;5013685;28;20021;-67
2023/10/14 06:24:10;;;;;;;11.13;1.53;;;;;;;;;;5012101;28;20018;-68
2023/10/14 06:26:36;;;;;;;12.33;2.10;;;;;;;;;;5010198;28;20097;-68
2023/10/14 06:29:01;;;;;;;10.73;1.70;;;;;;;;;;5012341;28;20093;-68
2023/10/14 06:31:26;;;;;;;15.93;1.93;;;;;;;;;;5012107;28;20033;-68
2023/10/14 06:33:55;;;;;;;8.43;1.83;;;;;;;;;;5012276;28;20018;-69
2023/10/14 06:36:23;;;;;;;13.37;1.83;;;;;;;;;;5012328;28;20476;-69
2023/10/14 06:38:49;;;;;;;14.67;1.47;;;;;;;;;;5011951;28;20018;-67
2023/10/14 06:41:17;;;;;;;12.10;1.73;;;;;;;;;;5011893;28;20090;-67
2023/10/14 06:43:55;;;;;;;7.43;1.23;;;;;;;;;;5016975;28;20049;-66
2023/10/14 06:46:20;;;;;;;6.10;1.47;;;;;;;;;;5012137;28;20089;-66
2023/10/14 06:48:52;;;;;;;9.63;1.50;;;;;;;;;;5012054;28;20025;-65
2023/10/14 06:51:18;;;;;;;13.55;1.35;;;;;;;;;;5012046;28;20479;-64
2023/10/14 06:53:44;;;;;;;8.35;1.60;;;;;;;;;;5012160;28;20464;-63
2023/10/14 06:56:11;;;;;;;9.30;1.30;;;;;;;;;;5011899;28;20025;-63
2023/10/14 06:58:39;;;;;;;9.05;1.85;;;;;;;;;;5011896;28;20014;-63
2023/10/14 07:01:05;;;;;;;14.88;2.05;;;;;;;;;;5011912;28;20507;-63
2023/10/14 07:03:31;;;;;;;14.02;1.80;;;;;;;;;;5011863;28;20491;-62
2023/10/14 07:08:21;;;;;;;12.20;1.67;;;;;;;;;;5011852;28;20049;-63
2023/10/14 07:10:47;;;;;;;9.48;1.50;;;;;;;;;;5012969;28;20024;-60
2023/10/14 07:13:13;;;;;;;10.10;1.70;;;;;;;;;;5014041;28;20472;-61
2023/10/14 07:15:38;;;;;;;12.90;2.22;;;;;;;;;;5011332;28;20021;-61
2023/10/14 07:18:04;;;;;;;10.70;1.48;;;;;;;;;;5011040;28;20038;-62
2023/10/14 07:20:29;;;;;;;14.25;1.70;;;;;;;;;;5011770;28;20418;-61
2023/10/14 07:22:55;;;;;;;11.80;1.42;;;;;;;;;;5015740;28;20575;-61
2023/10/14 07:25:23;;;;;;;11.57;2.13;;;;;;;;;;5011276;28;20403;-61
2023/10/14 07:27:51;;;;;;;8.40;1.30;;;;;;;;;;5011277;28;20424;-63
2023/10/14 07:30:17;;;;;;;9.10;1.95;;;;;;;;;;5011141;28;20495;-61
2023/10/14 07:32:43;;;;;;;9.98;1.40;;;;;;;;;;5007456;28;20037;-61
2023/10/14 07:35:11;;;;;;;10.05;1.50;;;;;;;;;;5010959;28;20092;-63
2023/10/14 07:37:37;;;;;;;8.20;1.20;;;;;;;;;;5011558;28;20491;-62
2023/10/14 07:40:04;;;;;;;8.85;1.27;;;;;;;;;;5011353;28;20026;-62
2023/10/14 07:42:30;;;;;;;9.32;1.60;;;;;;;;;;5011198;28;20345;-61
2023/10/14 07:44:55;;;;;;;10.85;1.50;;;;;;;;;;5011340;28;20022;-61
2023/10/14 07:47:21;;;;;;;9.90;1.30;;;;;;;;;;5013314;28;20037;-62
2023/10/14 07:49:46;;;;;;;10.90;2.03;;;;;;;;;;5010992;28;20014;-61
2023/10/14 07:52:14;;;;;;;9.25;1.40;;;;;;;;;;5011115;28;20425;-62
2023/10/14 07:54:42;;;;;;;11.27;1.33;;;;;;;;;;5007804;28;20379;-61
2023/10/14 07:57:11;;;;;;;11.10;1.55;;;;;;;;;;5010772;28;20034;-62
2023/10/14 07:59:37;;;;;;;8.60;1.35;;;;;;;;;;5010789;28;20471;-62
2023/10/14 08:02:03;;;;;;;9.88;1.70;;;;;;;;;;5026093;28;20033;-60
2023/10/14 08:04:28;;;;;;;10.88;1.70;;;;;;;;;;5009222;28;20029;-62
2023/10/14 08:06:53;;;;;;;7.05;1.60;;;;;;;;;;5011824;28;20387;-63
2023/10/14 08:09:25;;;;;;;9.32;1.42;;;;;;;;;;5007156;28;20391;-62
2023/10/14 08:11:51;;;;;;;10.60;1.55;;;;;;;;;;5031157;28;20468;-62
2023/10/14 08:14:16;;;;;;;12.10;1.88;;;;;;;;;;5008595;28;20100;-63
2023/10/14 08:16:41;;;;;;;10.93;1.60;;;;;;;;;;5008634;28;20046;-62
2023/10/14 08:19:10;;;;;;;9.73;1.48;;;;;;;;;;5008955;28;20054;-64
2023/10/14 08:21:36;;;;;;;11.85;2.05;;;;;;;;;;5004265;28;20364;-64
2023/10/14 08:24:02;;;;;;;8.88;1.45;;;;;;;;;;5013721;28;20472;-62
2023/10/14 08:26:27;;;;;;;8.18;1.30;;;;;;;;;;5019814;28;20101;-66
2023/10/14 08:28:59;;;;;;;11.63;1.52;;;;;;;;;;5008637;28;20029;-66
2023/10/14 08:31:25;;;;;;;7.10;1.63;;;;;;;;;;5009357;28;20561;-65
2023/10/14 08:33:50;;;;;;;12.00;1.55;;;;;;;;;;5025487;28;20017;-64
2023/10/14 08:36:16;;;;;;;9.02;1.52;;;;;;;;;;5026041;28;20441;-65
2023/10/14 08:38:43;;;;;;;9.07;1.75;;;;;;;;;;5026904;28;20425;-65
2023/10/14 08:41:13;;;;;;;10.90;1.83;;;;;;;;;;5021589;28;20014;-68
2023/10/14 08:43:42;;;;;;;10.73;1.77;;;;;;;;;;5010942;28;20416;-68
2023/10/14 08:46:08;;;;;;;8.13;1.88;;;;;;;;;;5008637;28;20022;-67
2023/10/14 08:48:34;;;;;;;13.00;1.60;;;;;;;;;;5007965;28;20364;-68
2023/10/14 08:50:59;;;;;;;11.75;1.63;;;;;;;;;;5009736;28;20018;-67
2023/10/14 08:53:25;;;;;;;11.55;1.73;;;;;;;;;;5013242;28;20433;-68
2023/10/14 08:55:55;;;;;;;7.47;1.52;;;;;;;;;;5012075;28;20026;-67
2023/10/14 08:58:22;;;;;;;8.35;1.40;;;;;;;;;;4992456;28;20034;-67
2023/10/14 09:00:47;;;;;;;14.50;1.85;;;;;;;;;;5007208;28;20018;-68
2023/10/14 09:03:13;;;;;;;12.75;2.67;;;;;;;;;;5012638;28;20399;-68
2023/10/14 09:05:44;;;;;;;14.20;1.40;;;;;;;;;;5006331;28;23999;-67
2023/10/14 09:08:10;;;;;;;11.32;1.80;;;;;;;;;;5027195;28;20045;-66
2023/10/14 09:10:36;;;;;;;10.48;1.40;;;;;;;;;;5003914;28;20045;-65
2023/10/14 09:13:06;;;;;;;7.70;1.20;;;;;;;;;;5002715;28;20114;-68
2023/10/14 09:15:32;;;;;;;10.93;1.58;;;;;;;;;;4992220;28;20030;-69
2023/10/14 09:17:58;;;;;;;8.85;2.08;;;;;;;;;;5025018;28;20041;-69
2023/10/14 09:20:27;;;;;;;11.68;1.77;;;;;;;;;;5001577;28;20044;-69
2023/10/14 09:23:09;;;;;;;9.18;1.65;;;;;;;;;;5009087;28;20476;-68
2023/10/14 09:25:39;;;;;;;12.15;2.85;;;;;;;;;;5003959;28;20074;-69
2023/10/14 09:28:05;;;;;;;12.77;1.60;;;;;;;;;;5002169;28;20052;-69
2023/10/14 09:30:30;;;;;;;13.70;1.50;;;;;;;;;;5007161;28;20029;-68
2023/10/14 09:32:55;;;;;;;13.05;1.98;;;;;;;;;;5000710;28;20423;-68
2023/10/14 09:35:21;;;;;;;10.98;1.73;;;;;;;;;;5009106;28;20021;-68
2023/10/14 09:37:46;;;;;;;6.93;1.30;;;;;;;;;;5004592;28;20022;-68
2023/10/14 09:40:13;;;;;;;13.30;1.80;;;;;;;;;;5011563;28;20091;-67
2023/10/14 09:42:39;;;;;;;9.00;1.50;;;;;;;;;;5027335;28;20127;-69
2023/10/14 09:45:10;;;;;;;15.18;1.77;;;;;;;;;;5027979;28;20032;-68
2023/10/14 09:47:36;;;;;;;10.98;1.52;;;;;;;;;;5014306;28;20475;-68
2023/10/14 09:50:05;;;;;;;10.20;1.50;;;;;;;;;;5012823;28;20083;-69
2023/10/14 09:52:31;;;;;;;11.75;1.52;;;;;;;;;;5006788;28;20070;-67
2023/10/14 09:54:56;;;;;;;10.07;1.58;;;;;;;;;;5004177;28;20026;-67
2023/10/14 09:57:21;;;;;;;15.68;1.77;;;;;;;;;;4994869;28;20022;-68
2023/10/14 09:59:49;;;;;;;10.57;1.83;;;;;;;;;;5014503;28;20026;-69
2023/10/14 10:02:14;;;;;;;10.90;1.42;;;;;;;;;;4998858;28;20029;-66
2023/10/14 10:04:42;;;;;;;11.20;1.65;;;;;;;;;;4997594;28;20033;-68
2023/10/14 10:07:10;;;;;;;11.38;1.98;;;;;;;;;;4993652;28;20026;-69
2023/10/14 10:09:57;;;;;;;16.50;2.10;;;;;;;;;;5010258;28;20520;-68
2023/10/14 10:12:23;;;;;;;14.65;2.20;;;;;;;;;;4995967;28;20361;-68
2023/10/14 10:14:56;;;;;;;9.68;1.42;;;;;;;;;;5009735;28;20018;-69
2023/10/14 10:17:24;;;;;;;14.43;1.50;;;;;;;;;;5010743;28;20495;-69
2023/10/14 10:20:01;;;;;;;9.40;1.88;;;;;;;;;;5011613;28;20108;-66
2023/10/14 10:22:39;;;;;;;9.90;1.83;;;;;;;;;;5008328;28;20036;-67
2023/10/14 10:25:04;;;;;;;15.55;2.10;;;;;;;;;;5011758;28;20022;-68
2023/10/14 10:27:29;;;;;;;7.82;1.67;;;;;;;;;;5004609;28;20030;-69
2023/10/14 10:29:57;;;;;;;12.18;1.60;;;;;;;;;;5017256;28;20030;-67
2023/10/14 10:32:23;;;;;;;8.52;1.40;;;;;;;;;;5014786;28;20026;-68
2023/10/14 10:35:04;;;;;;;9.85;1.52;;;;;;;;;;5012400;28;20018;-69
2023/10/14 10:37:29;;;;;;;8.32;1.50;;;;;;;;;;5022102;28;20513;-68
2023/10/14 10:39:55;;;;;;;11.68;1.88;;;;;;;;;;5011770;28;20026;-68
2023/10/14 10:42:20;;;;;;;12.95;1.92;;;;;;;;;;5021171;28;20112;-67
2023/10/14 10:44:45;;;;;;;8.48;1.40;;;;;;;;;;5016932;28;20075;-69
2023/10/14 10:47:12;;;;;;;10.13;1.65;;;;;;;;;;5007627;28;20022;-70
2023/10/14 10:49:49;;;;;;;6.68;1.33;;;;;;;;;;5007538;28;20360;-69
2023/10/14 10:52:15;;;;;;;11.55;1.60;;;;;;;;;;5013765;28;20437;-69
2023/10/14 10:54:44;;;;;;;9.38;1.60;;;;;;;;;;5014962;28;20067;-68
2023/10/14 10:57:13;;;;;;;11.23;1.40;;;;;;;;;;5008612;28;20059;-67
2023/10/14 10:59:39;;;;;;;10.10;1.70;;;;;;;;;;5009586;28;20017;-68
2023/10/14 11:02:08;;;;;;;6.97;1.40;;;;;;;;;;5009421;28;20434;-67
2023/10/14 11:04:34;;;;;;;8.50;1.42;;;;;;;;;;5011233;28;20093;-70
2023/10/14 11:07:00;;;;;;;9.00;1.50;;;;;;;;;;5006092;28;20483;-69
2023/10/14 11:09:26;;;;;;;15.88;2.15;;;;;;;;;;5011407;28;20018;-69
2023/10/14 11:12:00;;;;;;;6.20;1.20;;;;;;;;;;5008170;28;20026;-71
2023/10/14 11:14:26;;;;;;;6.75;1.98;;;;;;;;;;5006686;28;20501;-69
2023/10/14 11:16:54;;;;;;;5.28;1.20;;;;;;;;;;5008950;28;20046;-68
2023/10/14 11:19:22;;;;;;;8.63;1.50;;;;;;;;;;5007685;28;20361;-63
2023/10/14 11:21:49;;;;;;;12.50;1.55;;;;;;;;;;5007176;28;20461;-63
2023/10/14 11:24:15;;;;;;;8.65;1.48;;;;;;;;;;5010101;28;20435;-64
2023/10/14 11:26:42;;;;;;;11.80;1.42;;;;;;;;;;5009763;28;20022;-62
2023/10/14 11:29:07;;;;;;;10.45;1.60;;;;;;;;;;5008578;28;20034;-62
2023/10/14 11:31:32;;;;;;;13.48;1.55;;;;;;;;;;5011889;28;20544;-61
2023/10/14 11:34:01;;;;;;;7.03;1.20;;;;;;;;;;5009075;28;20376;-63
2023/10/14 11:36:27;;;;;;;6.10;1.15;;;;;;;;;;5009832;28;20025;-63
2023/10/14 11:38:58;;;;;;;11.45;1.50;;;;;;;;;;5009083;28;20109;-64
2023/10/14 11:41:25;;;;;;;6.60;1.07;;;;;;;;;;5008604;28;20025;-66
2023/10/14 11:43:51;;;;;;;7.90;0.90;;;;;;;;;;5009938;28;20268;-61
2023/10/14 11:46:17;;;;;;;2.67;0.80;;;;;;;;;;5012122;28;20033;-65
2023/10/14 11:48:49;;;;;;;6.37;1.00;;;;;;;;;;5006970;28;20103;-59
2023/10/14 11:51:21;;;;;;;3.97;0.85;;;;;;;;;;5016255;28;20048;-61
2023/10/14 11:53:50;;;;;;;5.67;1.27;;;;;;;;;;4994991;28;20113;-61
2023/10/14 11:56:16;;;;;;;5.93;1.10;;;;;;;;;;5012696;28;20030;-62
2023/10/14 11:58:41;;;;;;;7.50;1.70;;;;;;;;;;5009211;28;20025;-59
2023/10/14 12:01:09;;;;;;;6.07;1.00;;;;;;;;;;5001093;28;20041;-59
2023/10/14 12:03:34;;;;;;;5.60;1.07;;;;;;;;;;5009097;28;20092;-59
2023/10/14 12:05:59;;;;;;;6.20;1.23;;;;;;;;;;5010895;28;20033;-63
2023/10/14 12:08:32;;;;;;;2.80;0.70;;;;;;;;;;5010794;28;20471;-63
2023/10/14 12:10:58;;;;;;;6.00;0.67;;;;;;;;;;5008523;28;20032;-60
2023/10/14 12:13:26;;;;;;;5.23;0.80;;;;;;;;;;5008239;28;20026;-58
2023/10/14 12:15:51;;;;;;;4.73;0.87;;;;;;;;;;5010990;28;20104;-61
2023/10/14 12:18:17;;;;;;;6.07;0.90;;;;;;;;;;5006030;28;20125;-59
2023/10/14 12:20:48;;;;;;;5.27;1.00;;;;;;;;;;5003165;28;20054;-62
2023/10/14 12:23:14;;;;;;;5.45;1.00;;;;;;;;;;5007822;28;20036;-61
2023/10/14 12:25:41;;;;;;;10.30;1.33;;;;;;;;;;5008233;28;20430;-62
2023/10/14 12:28:06;;;;;;;8.73;1.57;;;;;;;;;;5007203;28;20125;-60
2023/10/14 12:30:42;;;;;;;8.30;0.90;;;;;;;;;;5010840;28;20014;-62
2023/10/14 12:33:08;;;;;;;6.40;1.03;;;;;;;;;;5010404;28;20482;-61
2023/10/14 12:35:39;;;;;;;4.93;0.90;;;;;;;;;;5010702;28;20021;-62
2023/10/14 12:38:08;;;;;;;4.32;0.80;;;;;;;;;;5010517;28;20101;-61
2023/10/14 12:40:33;;;;;;;7.50;0.90;;;;;;;;;;4994067;28;20488;-60
2023/10/14 12:43:03;;;;;;;9.85;1.27;;;;;;;;;;5007271;28;20034;-60
2023/10/14 12:45:28;;;;;;;5.35;1.00;;;;;;;;;;5010217;28;20072;-62
2023/10/14 12:47:58;;;;;;;3.58;0.80;;;;;;;;;;5008937;28;20025;-61
2023/10/14 12:50:23;;;;;;;6.20;0.95;;;;;;;;;;5008849;28;20050;-62
2023/10/14 12:53:08;;;;;;;3.88;0.70;;;;;;;;;;5007925;28;20061;-64
2023/10/14 12:55:34;;;;;;;3.35;0.57;;;;;;;;;;5003184;28;20022;-62
2023/10/14 12:57:59;;;;;;;4.18;1.10;;;;;;;;;;5007308;28;20024;-61
2023/10/14 13:00:30;;;;;;;5.43;0.60;;;;;;;;;;5004599;28;20022;-62
2023/10/14 13:02:56;;;;;;;4.32;0.85;;;;;;;;;;5001876;28;20034;-61
2023/10/14 13:05:22;;;;;;;5.53;0.57;;;;;;;;;;5006848;28;20033;-65
2023/10/14 13:07:51;;;;;;;3.95;0.82;;;;;;;;;;5008703;28;20100;-65
2023/10/14 13:10:18;;;;;;;5.03;0.98;;;;;;;;;;5008423;28;20026;-63
2023/10/14 13:12:53;;;;;;;5.88;1.10;;;;;;;;;;5008367;28;20109;-61
2023/10/14 13:15:25;;;;;;;3.38;0.60;;;;;;;;;;5008934;28;20057;-62
2023/10/14 13:17:50;;;;;;;;;;;;;;;;;;5008711;28;20046;-65
2023/10/14 13:20:20;;;;;;;5.47;0.90;;;;;;;;;;5008070;28;20008;-61
2023/10/14 13:22:45;;;;;;;4.15;0.82;;;;;;;;;;5006551;28;20748;-64
2023/10/14 13:25:16;;;;;;;4.38;0.70;;;;;;;;;;5001356;28;20086;-62
2023/10/14 13:27:42;;;;;;;7.50;1.05;;;;;;;;;;5009823;28;20026;-65
2023/10/14 13:30:10;;;;;;;4.65;0.90;;;;;;;;;;5008679;28;20033;-64
2023/10/14 13:32:36;;;;;;;3.83;0.73;;;;;;;;;;5004570;28;20419;-64
2023/10/14 13:35:05;;;;;;;7.70;0.80;;;;;;;;;;5009993;28;20422;-64
2023/10/14 13:37:30;;;;;;;6.78;1.00;;;;;;;;;;5010592;28;20494;-63
2023/10/14 13:39:55;;;;;;;7.35;1.10;;;;;;;;;;4999343;28;20026;-68
2023/10/14 13:42:23;;;;;;;5.47;0.90;;;;;;;;;;4992925;28;20494;-69
2023/10/14 13:44:48;;;;;;;9.70;1.20;;;;;;;;;;5003783;28;20498;-67
2023/10/14 13:47:13;;;;;;;6.03;0.80;;;;;;;;;;5013048;28;20030;-67
2023/10/14 13:49:42;;;;;;;3.67;0.80;;;;;;;;;;4998025;28;20026;-69
2023/10/14 13:52:07;;;;;;;3.78;0.90;;;;;;;;;;5009861;28;20057;-71
2023/10/14 13:54:33;;;;;;;5.47;1.08;;;;;;;;;;5012399;28;20495;-68
2023/10/14 13:56:58;;;;;;;4.03;0.70;;;;;;;;;;5001421;28;20380;-72
2023/10/14 13:59:23;;;;;;;4.10;0.80;;;;;;;;;;5006070;28;20081;-71
2023/10/14 14:01:48;;;;;;;6.30;0.80;;;;;;;;;;5012550;28;20151;-68
2023/10/14 14:04:17;;;;;;;5.03;0.93;;;;;;;;;;5009489;28;20041;-70
2023/10/14 14:06:42;;;;;;;6.45;0.90;;;;;;;;;;5009239;28;20034;-70
2023/10/14 14:09:08;;;;;;;5.13;0.82;;;;;;;;;;5012339;28;20028;-69
2023/10/14 14:11:33;;;;;;;7.32;1.02;;;;;;;;;;5012719;28;20062;-71
2023/10/14 14:13:59;;;;;;;6.32;1.00;;;;;;;;;;5012325;28;20022;-72
2023/10/14 14:16:25;;;;;;;7.57;1.35;;;;;;;;;;5011823;28;20410;-69
2023/10/14 14:18:50;;;;;;;4.88;0.93;;;;;;;;;;5004815;28;20023;-71
2023/10/14 14:21:16;;;;;;;7.82;1.02;;;;;;;;;;4993326;28;20105;-69
2023/10/14 14:23:43;;;;;;;4.22;0.80;;;;;;;;;;4998754;28;20098;-71
2023/10/14 14:26:08;;;;;;;6.05;0.90;;;;;;;;;;4993038;28;20019;-70
2023/10/14 14:28:33;;;;;;;6.25;0.93;;;;;;;;;;4996906;28;20099;-70
2023/10/14 14:31:00;;;;;;;6.90;1.20;;;;;;;;;;5010401;28;20079;-71
2023/10/14 14:33:29;;;;;;;6.30;0.90;;;;;;;;;;5011702;28;20021;-72
2023/10/14 14:35:54;;;;;;;4.70;0.98;;;;;;;;;;5012019;28;20087;-72
2023/10/14 14:38:21;;;;;;;5.70;1.02;;;;;;;;;;5012441;28;20018;-72
2023/10/14 14:40:47;;;;;;;9.27;1.30;;;;;;;;;;5011990;28;20010;-68
2023/10/14 14:43:12;;;;;;;6.65;1.20;;;;;;;;;;5011133;28;20411;-71
2023/10/14 14:45:38;;;;;;;7.80;1.38;;;;;;;;;;5004860;28;20026;-70
2023/10/14 14:48:04;;;;;;;6.88;1.00;;;;;;;;;;5007798;28;20022;-69
2023/10/14 14:50:34;;;;;;;7.45;1.20;;;;;;;;;;5004683;28;20027;-69
2023/10/14 14:53:00;;;;;;;7.70;1.20;;;;;;;;;;4994264;28;20484;-69
2023/10/14 14:55:25;;;;;;;7.05;1.00;;;;;;;;;;5012047;28;20033;-69
2023/10/14 14:57:52;;;;;;;6.28;1.30;;;;;;;;;;5010635;28;20022;-68
2023/10/14 15:00:27;;;;;;;9.82;1.63;;;;;;;;;;5010076;28;20468;-69
2023/10/14 15:03:00;;;;;;;7.93;1.27;;;;;;;;;;4999272;28;20449;-68
2023/10/14 15:05:29;;;;;;;9.63;1.40;;;;;;;;;;4992779;28;20472;-68
2023/10/14 15:07:55;;;;;;;7.40;1.30;;;;;;;;;;4992398;28;20053;-70
2023/10/14 15:10:21;;;;;;;8.82;1.65;;;;;;;;;;5007263;28;20495;-69
2023/10/14 15:12:48;;;;;;;10.80;1.77;;;;;;;;;;5011727;28;20110;-69